Terminal Aerodrome Forecast
Issued by NWS

Current Version | Previous Version | Graphics & Text | Print | Product List | Glossary On
Versions: 1 2 3 4 5 6 7 8 9 10 11 12 13 14 15 16 17 18
000
FTUS41 KILN 262300
TAFLUK
TAF
KLUK 262335Z 2700/2724 33005KT P6SM SCT028 BKN120
      TEMPO 2700/2702 BKN028
     FM270300 34005KT P6SM BKN040
     FM270800 35005KT P6SM FEW040
     FM271400 35009KT P6SM BKN040
     FM272000 32012G20KT P6SM SCT045=

USA.gov is the U.S. government's official web portal to all federal, state and local government web resources and services.